createdAt,value
2022-08-20T00:00:17.600Z,6.22
2022-08-20T00:02:46.434Z,8.68
2022-08-20T00:05:13.404Z,7.47
2022-08-20T00:07:39.323Z,8.60
2022-08-20T00:10:07.900Z,8.50
2022-08-20T00:12:34.295Z,7.65
2022-08-20T00:17:41.544Z,6.60
2022-08-20T00:20:11.794Z,7.63
2022-08-20T00:22:37.748Z,8.18
2022-08-20T00:25:10.712Z,7.75
2022-08-20T00:27:36.697Z,8.00
2022-08-20T00:30:04.538Z,9.35
2022-08-20T00:32:30.570Z,7.88
2022-08-20T00:39:59.580Z,8.02
2022-08-20T00:42:25.547Z,8.40
2022-08-20T00:44:51.426Z,8.18
2022-08-20T00:47:17.410Z,7.50
2022-08-20T00:49:43.990Z,8.50
2022-08-20T00:52:15.188Z,8.05
2022-08-20T00:54:44.439Z,9.55
2022-08-20T01:02:12.702Z,11.48
2022-08-20T01:04:39.051Z,7.70
2022-08-20T01:07:06.370Z,9.50
2022-08-20T01:09:49.973Z,7.30
2022-08-20T01:12:19.448Z,8.32
2022-08-20T01:14:46.755Z,7.32
2022-08-20T01:17:16.482Z,7.95
2022-08-20T01:26:45.312Z,9.30
2022-08-20T01:29:15.216Z,10.88
2022-08-20T01:31:41.979Z,9.23
2022-08-20T01:34:10.443Z,8.95
2022-08-20T01:36:44.265Z,10.27
2022-08-20T01:39:14.930Z,9.40
2022-08-20T01:41:51.892Z,9.38
2022-08-20T01:49:23.646Z,10.07
2022-08-20T01:51:51.119Z,8.70
2022-08-20T01:54:17.721Z,9.18
2022-08-20T01:56:53.590Z,10.05
2022-08-20T01:59:19.678Z,10.50
2022-08-20T02:01:46.903Z,9.65
2022-08-20T02:04:15.389Z,10.50
2022-08-20T02:11:45.045Z,9.02
2022-08-20T02:14:11.060Z,8.68
2022-08-20T02:16:40.566Z,9.23
2022-08-20T02:19:10.850Z,10.13
2022-08-20T02:21:39.586Z,8.65
2022-08-20T02:24:05.974Z,8.27
2022-08-20T02:26:34.803Z,9.50
2022-08-20T02:34:22.203Z,9.02
2022-08-20T02:36:49.164Z,8.25
2022-08-20T02:39:15.080Z,8.57
2022-08-20T02:41:41.164Z,10.05
2022-08-20T02:44:08.138Z,9.35
2022-08-20T02:46:35.116Z,10.25
2022-08-20T02:49:01.124Z,10.55
2022-08-20T02:54:05.165Z,10.63
2022-08-20T02:56:31.255Z,12.73
2022-08-20T02:58:57.126Z,14.23
2022-08-20T03:01:23.093Z,13.48
2022-08-20T03:03:49.327Z,16.17
2022-08-20T03:06:15.974Z,15.43
2022-08-20T03:08:42.530Z,15.07
2022-08-20T03:16:13.082Z,17.25
2022-08-20T03:18:42.532Z,19.58
2022-08-20T03:21:09.896Z,19.27
2022-08-20T03:23:36.804Z,18.05
2022-08-20T03:26:09.091Z,20.73
2022-08-20T03:28:35.205Z,17.88
2022-08-20T03:31:01.353Z,19.40
2022-08-20T03:36:08.223Z,17.95
2022-08-20T03:38:34.717Z,21.00
2022-08-20T03:41:01.653Z,19.55
2022-08-20T03:43:28.114Z,19.50
2022-08-20T03:45:54.011Z,18.02
2022-08-20T03:48:20.795Z,19.30
2022-08-20T03:50:49.029Z,24.73
2022-08-20T03:58:17.705Z,22.15
2022-08-20T04:00:47.480Z,23.92
2022-08-20T04:03:14.473Z,26.95
2022-08-20T04:05:41.400Z,22.40
2022-08-20T04:08:08.857Z,22.88
2022-08-20T04:10:35.134Z,22.50
2022-08-20T04:13:03.155Z,22.42
2022-08-20T04:20:33.971Z,21.42
2022-08-20T04:23:00.063Z,23.33
2022-08-20T04:25:26.270Z,24.50
2022-08-20T04:27:52.938Z,27.02
2022-08-20T04:30:20.209Z,24.65
2022-08-20T04:32:46.127Z,24.25
2022-08-20T04:35:13.843Z,25.05
2022-08-20T04:44:13.882Z,23.77
2022-08-20T04:46:41.779Z,24.98
2022-08-20T04:49:07.682Z,25.13
2022-08-20T04:51:33.865Z,29.00
2022-08-20T04:54:00.805Z,27.38
2022-08-20T04:56:29.633Z,29.95
2022-08-20T04:58:57.632Z,23.40
2022-08-20T05:06:29.541Z,27.15
2022-08-20T05:08:57.126Z,21.05
2022-08-20T05:11:34.845Z,21.73
2022-08-20T05:14:04.664Z,27.17
2022-08-20T05:16:30.486Z,26.65
2022-08-20T05:18:56.438Z,27.58
2022-08-20T05:21:22.346Z,25.10
2022-08-20T05:28:24.982Z,22.50
2022-08-20T05:30:52.037Z,22.50
2022-08-20T05:33:20.606Z,26.42
2022-08-20T05:35:49.089Z,25.17
2022-08-20T05:38:16.880Z,27.00
2022-08-20T05:40:43.757Z,29.90
2022-08-20T05:43:09.791Z,32.13
2022-08-20T05:48:16.024Z,29.95
2022-08-20T05:50:44.325Z,33.38
2022-08-20T05:53:11.506Z,27.52
2022-08-20T05:55:38.806Z,29.27
2022-08-20T05:58:13.210Z,30.85
2022-08-20T06:00:39.252Z,34.30
2022-08-20T06:03:05.139Z,29.23
2022-08-20T06:08:40.621Z,30.15
2022-08-20T06:11:07.347Z,24.80
2022-08-20T06:13:33.742Z,28.92
2022-08-20T06:16:00.618Z,24.98
2022-08-20T06:18:27.999Z,23.67
2022-08-20T06:20:55.295Z,26.85
2022-08-20T06:23:21.566Z,26.10
2022-08-20T06:30:47.151Z,26.48
2022-08-20T06:33:13.229Z,26.52
2022-08-20T06:35:39.355Z,30.30
2022-08-20T06:38:05.295Z,27.85
2022-08-20T06:40:31.306Z,28.33
2022-08-20T06:42:57.431Z,29.73
2022-08-20T06:45:27.328Z,32.45
2022-08-20T06:52:58.594Z,31.48
2022-08-20T06:55:25.158Z,32.75
2022-08-20T06:57:59.076Z,26.52
2022-08-20T07:00:25.615Z,28.35
2022-08-20T07:02:51.533Z,28.35
2022-08-20T07:05:17.533Z,28.83
2022-08-20T07:07:44.547Z,31.02
2022-08-20T07:12:50.178Z,31.27
2022-08-20T07:15:17.534Z,27.50
2022-08-20T07:17:48.785Z,27.05
2022-08-20T07:20:14.898Z,31.70
2022-08-20T07:22:40.795Z,31.73
2022-08-20T07:25:11.167Z,35.25
2022-08-20T07:27:37.567Z,28.40
2022-08-20T07:35:11.219Z,28.50
2022-08-20T07:37:38.278Z,35.67
2022-08-20T07:40:05.599Z,29.50
2022-08-20T07:42:31.562Z,32.63
2022-08-20T07:44:57.529Z,32.75
2022-08-20T07:47:23.432Z,33.80
2022-08-20T07:49:49.400Z,27.23
2022-08-20T07:57:19.020Z,25.08
2022-08-20T07:59:44.945Z,33.17
2022-08-20T08:02:12.224Z,28.65
2022-08-20T08:04:38.588Z,25.45
2022-08-20T08:07:05.210Z,26.50
2022-08-20T08:09:33.230Z,21.88
2022-08-20T08:11:59.610Z,26.75
2022-08-20T08:21:00.273Z,29.95
2022-08-20T08:23:31.724Z,29.15
2022-08-20T08:25:58.401Z,34.35
2022-08-20T08:28:24.376Z,32.38
2022-08-20T08:30:50.284Z,32.35
2022-08-20T08:33:21.981Z,28.40
2022-08-20T08:35:47.892Z,28.55
2022-08-20T08:43:17.379Z,29.75
2022-08-20T08:45:55.628Z,30.53
2022-08-20T08:48:29.287Z,32.67
2022-08-20T08:50:55.329Z,30.55
2022-08-20T08:53:25.312Z,31.42
2022-08-20T08:55:51.422Z,32.53
2022-08-20T08:58:18.008Z,31.83
2022-08-20T09:03:27.427Z,29.15
2022-08-20T09:05:55.488Z,30.92
2022-08-20T09:08:25.067Z,32.47
2022-08-20T09:10:51.000Z,37.00
2022-08-20T09:13:16.991Z,32.47
2022-08-20T09:15:43.103Z,31.92
2022-08-20T09:18:09.067Z,30.73
2022-08-20T09:25:44.131Z,33.65
2022-08-20T09:28:10.180Z,32.33
2022-08-20T09:30:38.581Z,44.88
2022-08-20T09:33:04.878Z,36.10
2022-08-20T09:35:32.316Z,33.63
2022-08-20T09:38:05.180Z,33.67
2022-08-20T09:57:05.422Z,27.13
2022-08-20T09:59:33.381Z,32.58
2022-08-20T10:05:43.839Z,26.80
2022-08-20T10:08:13.067Z,28.25
2022-08-20T10:10:39.208Z,22.30
2022-08-20T10:13:06.749Z,22.05
2022-08-20T10:15:35.632Z,22.85
2022-08-20T10:18:03.199Z,22.48
2022-08-20T10:20:31.097Z,20.58
2022-08-20T10:27:40.056Z,19.70
2022-08-20T10:30:07.550Z,18.73
2022-08-20T10:32:34.059Z,17.70
2022-08-20T10:35:00.762Z,18.25
2022-08-20T10:37:27.067Z,17.60
2022-08-20T10:39:54.327Z,18.00
2022-08-20T10:42:20.876Z,15.68
2022-08-20T10:44:47.772Z,14.75
2022-08-20T10:52:21.943Z,13.95
2022-08-20T10:54:48.528Z,11.77
2022-08-20T10:57:17.740Z,13.23
2022-08-20T10:59:46.382Z,14.68
2022-08-20T11:02:12.555Z,12.55
2022-08-20T11:04:38.734Z,11.85
2022-08-20T11:07:13.800Z,12.23
2022-08-20T11:12:35.531Z,10.30
2022-08-20T11:15:01.500Z,9.75
2022-08-20T11:17:31.120Z,9.13
2022-08-20T11:19:59.535Z,10.10
2022-08-20T11:22:26.300Z,10.13
2022-08-20T11:24:52.764Z,10.82
2022-08-20T11:27:23.082Z,8.05
2022-08-20T11:34:55.618Z,8.70
2022-08-20T11:37:23.821Z,9.23
2022-08-20T11:39:50.253Z,10.20
2022-08-20T11:42:16.683Z,9.73
2022-08-20T11:44:42.759Z,7.18
2022-08-20T11:47:21.141Z,8.23
2022-08-20T11:49:47.191Z,7.72
2022-08-20T11:52:13.951Z,6.43
2022-08-20T11:59:56.021Z,7.88
2022-08-20T12:02:22.259Z,8.27
2022-08-20T12:04:48.692Z,9.57
2022-08-20T12:07:17.383Z,5.45
2022-08-20T12:09:51.400Z,7.00
2022-08-20T12:12:21.619Z,7.68
2022-08-20T12:14:49.047Z,7.85
2022-08-20T12:20:28.678Z,6.95
2022-08-20T12:22:54.732Z,7.30
2022-08-20T12:25:20.712Z,7.03
2022-08-20T12:27:46.844Z,6.43
2022-08-20T12:30:15.389Z,8.90
2022-08-20T12:32:41.556Z,9.30
2022-08-20T12:35:09.242Z,7.07
2022-08-20T12:42:46.318Z,5.75
2022-08-20T12:45:12.287Z,5.75
2022-08-20T12:47:45.052Z,7.65
2022-08-20T12:50:13.125Z,6.38
2022-08-20T12:52:40.340Z,8.68
2022-08-20T12:55:08.714Z,7.40
2022-08-20T12:57:37.319Z,8.02
2022-08-20T13:03:12.176Z,6.07
2022-08-20T13:05:38.708Z,5.18
2022-08-20T13:08:11.677Z,4.80
2022-08-20T13:10:44.387Z,6.53
2022-08-20T13:13:14.822Z,5.93
2022-08-20T13:15:46.170Z,8.80
2022-08-20T13:18:18.834Z,8.52
2022-08-20T13:23:36.591Z,8.40
2022-08-20T13:26:06.433Z,8.23
2022-08-20T13:28:32.453Z,18.00
2022-08-20T13:31:00.640Z,6.18
2022-08-20T13:33:27.329Z,8.35
2022-08-20T13:35:58.404Z,8.02
2022-08-20T13:38:24.804Z,7.07
2022-08-20T13:43:52.462Z,6.95
2022-08-20T13:46:21.751Z,6.90
2022-08-20T13:48:48.266Z,10.32
2022-08-20T13:51:14.711Z,10.93
2022-08-20T13:53:45.329Z,9.38
2022-08-20T13:56:13.330Z,8.82
2022-08-20T13:58:39.726Z,7.28
2022-08-20T14:01:06.838Z,7.68
2022-08-20T14:08:36.285Z,7.38
2022-08-20T14:11:02.648Z,7.75
2022-08-20T14:13:28.692Z,7.85
2022-08-20T14:15:55.198Z,6.75
2022-08-20T14:18:21.864Z,5.40
2022-08-20T14:20:48.538Z,6.55
2022-08-20T14:23:18.407Z,7.67
2022-08-20T14:30:07.105Z,7.72
2022-08-20T14:32:33.095Z,5.80
2022-08-20T14:34:59.767Z,7.35
2022-08-20T14:37:31.549Z,7.22
2022-08-20T14:39:59.093Z,5.63
2022-08-20T14:42:26.634Z,4.95
2022-08-20T14:44:53.681Z,6.03
2022-08-20T14:50:19.316Z,7.72
2022-08-20T14:52:45.838Z,5.83
2022-08-20T14:55:14.434Z,6.13
2022-08-20T14:57:41.056Z,5.90
2022-08-20T15:00:10.030Z,11.07
2022-08-20T15:02:37.447Z,4.63
2022-08-20T15:05:04.269Z,5.60
2022-08-20T15:11:43.380Z,6.22
2022-08-20T15:14:09.661Z,4.75
2022-08-20T15:16:36.197Z,6.57
2022-08-20T15:19:03.041Z,7.53
2022-08-20T15:21:28.937Z,4.28
2022-08-20T15:24:18.974Z,5.43
2022-08-20T15:26:46.265Z,4.80
2022-08-20T15:34:17.832Z,6.22
2022-08-20T15:36:44.294Z,19.42
2022-08-20T15:39:10.189Z,6.35
2022-08-20T15:41:36.106Z,5.18
2022-08-20T15:44:02.445Z,5.07
2022-08-20T15:46:31.115Z,4.60
2022-08-20T15:49:02.050Z,8.05
2022-08-20T15:56:03.232Z,8.10
2022-08-20T15:58:36.799Z,4.22
2022-08-20T16:01:25.406Z,7.07
2022-08-20T16:04:13.317Z,5.15
2022-08-20T16:06:41.973Z,9.57
2022-08-20T16:09:37.354Z,5.82
2022-08-20T16:17:08.025Z,5.65
2022-08-20T16:19:43.881Z,6.72
2022-08-20T16:22:15.019Z,4.47
2022-08-20T16:24:41.043Z,6.18
2022-08-20T16:27:13.358Z,6.05
2022-08-20T16:29:47.014Z,4.70
2022-08-20T16:32:21.540Z,6.03
2022-08-20T16:40:11.864Z,4.88
2022-08-20T16:42:40.483Z,3.80
2022-08-20T16:45:12.889Z,4.05
2022-08-20T16:47:38.951Z,4.47
2022-08-20T16:50:10.096Z,5.15
2022-08-20T16:52:36.017Z,4.40
2022-08-20T16:55:03.124Z,6.35
2022-08-20T17:02:32.329Z,4.35
2022-08-20T17:05:06.686Z,5.93
2022-08-20T17:07:43.239Z,4.07
2022-08-20T17:10:16.101Z,4.53
2022-08-20T17:12:43.144Z,4.10
2022-08-20T17:15:19.416Z,4.13
2022-08-20T17:17:46.018Z,5.57
2022-08-20T17:25:18.249Z,6.00
2022-08-20T17:27:45.551Z,7.57
2022-08-20T17:30:20.465Z,5.95
2022-08-20T17:32:57.570Z,4.60
2022-08-20T17:35:30.022Z,5.03
2022-08-20T17:37:57.070Z,5.57
2022-08-20T17:40:33.783Z,5.88
2022-08-20T17:47:39.062Z,7.53
2022-08-20T17:50:12.118Z,6.13
2022-08-20T17:52:45.706Z,4.82
2022-08-20T17:55:12.278Z,6.30
2022-08-20T17:57:44.213Z,5.22
2022-08-20T18:00:16.637Z,4.57
2022-08-20T18:02:43.383Z,6.85
2022-08-20T18:10:14.445Z,5.40
2022-08-20T18:12:44.365Z,3.80
2022-08-20T18:15:16.539Z,3.83
2022-08-20T18:18:11.071Z,3.47
2022-08-20T18:20:49.625Z,6.50
2022-08-20T18:23:22.606Z,7.15
2022-08-20T18:25:54.383Z,7.00
2022-08-20T18:33:29.712Z,3.13
2022-08-20T18:36:05.364Z,3.03
2022-08-20T18:38:32.032Z,4.65
2022-08-20T18:41:12.633Z,5.82
2022-08-20T18:43:39.732Z,4.88
2022-08-20T18:46:11.963Z,4.60
2022-08-20T18:51:41.736Z,3.55
2022-08-20T18:54:08.177Z,2.22
2022-08-20T18:56:40.256Z,5.60
2022-08-20T18:59:12.620Z,6.20
2022-08-20T19:01:40.980Z,1.67
2022-08-20T19:04:23.009Z,5.55
2022-08-20T19:06:57.335Z,5.00
2022-08-20T19:14:59.113Z,4.55
2022-08-20T19:17:37.088Z,4.57
2022-08-20T19:20:06.051Z,4.13
2022-08-20T19:22:33.433Z,4.78
2022-08-20T19:24:59.593Z,5.32
2022-08-20T19:27:27.382Z,4.32
2022-08-20T19:29:56.728Z,4.20
2022-08-20T19:37:40.215Z,5.45
2022-08-20T19:40:25.698Z,5.13
2022-08-20T19:42:56.014Z,3.45
2022-08-20T19:45:27.461Z,6.25
2022-08-20T19:48:01.283Z,6.60
2022-08-20T19:50:35.775Z,5.93
2022-08-20T19:56:25.810Z,6.25
2022-08-20T19:58:59.694Z,4.50
2022-08-20T20:01:26.353Z,3.72
2022-08-20T20:03:58.269Z,3.95
2022-08-20T20:06:24.893Z,5.03
2022-08-20T20:08:54.209Z,4.45
2022-08-20T20:11:27.295Z,4.35
2022-08-20T20:18:27.054Z,5.90
2022-08-20T20:20:57.474Z,4.05
2022-08-20T20:23:25.677Z,3.70
2022-08-20T20:25:56.575Z,4.03
2022-08-20T20:28:25.785Z,5.40
2022-08-20T20:30:51.930Z,2.72
2022-08-20T20:33:23.534Z,6.10
2022-08-20T20:40:54.567Z,2.50
2022-08-20T20:43:26.013Z,2.88
2022-08-20T20:46:02.996Z,3.85
2022-08-20T20:48:38.760Z,5.68
2022-08-20T20:51:13.805Z,5.70
2022-08-20T20:53:53.369Z,5.75
2022-08-20T20:59:35.033Z,5.47
2022-08-20T21:02:01.356Z,5.32
2022-08-20T21:04:27.400Z,4.68
2022-08-20T21:06:55.977Z,5.07
2022-08-20T21:09:23.329Z,4.28
2022-08-20T21:11:49.852Z,8.18
2022-08-20T21:14:16.712Z,3.60
2022-08-20T21:19:21.916Z,4.07
2022-08-20T21:21:47.912Z,5.40
2022-08-20T21:24:13.928Z,6.18
2022-08-20T21:26:40.370Z,5.07
2022-08-20T21:29:08.492Z,4.93
2022-08-20T21:31:39.828Z,5.88
2022-08-20T21:34:11.298Z,4.72
2022-08-20T21:39:18.155Z,4.40
2022-08-20T21:41:44.483Z,3.95
2022-08-20T21:44:22.111Z,4.47
2022-08-20T21:46:52.090Z,4.85
2022-08-20T21:49:18.490Z,5.50
2022-08-20T21:51:44.523Z,4.43
2022-08-20T21:54:10.621Z,5.68
2022-08-20T22:01:38.826Z,3.35
2022-08-20T22:04:05.140Z,4.75
2022-08-20T22:06:31.790Z,5.68
2022-08-20T22:08:58.248Z,5.85
2022-08-20T22:11:24.172Z,4.25
2022-08-20T22:13:50.514Z,4.00
2022-08-20T22:16:18.541Z,5.43
2022-08-20T22:21:39.851Z,5.68
2022-08-20T22:24:08.142Z,5.03
2022-08-20T22:26:37.385Z,5.00
2022-08-20T22:29:04.286Z,7.32
2022-08-20T22:31:34.152Z,6.10
2022-08-20T22:34:00.884Z,4.30
2022-08-20T22:36:27.481Z,9.20
2022-08-20T22:43:57.414Z,6.13
2022-08-20T22:46:26.822Z,8.68
2022-08-20T22:48:53.345Z,4.32
2022-08-20T22:51:21.944Z,6.10
2022-08-20T22:53:48.789Z,6.15
2022-08-20T22:56:19.942Z,7.78
2022-08-20T22:58:47.811Z,3.25
2022-08-20T23:06:19.322Z,5.70
2022-08-20T23:08:45.258Z,4.82
2022-08-20T23:11:12.096Z,6.53
2022-08-20T23:13:38.009Z,5.13
2022-08-20T23:16:05.944Z,5.07
2022-08-20T23:18:32.129Z,4.60
2022-08-20T23:20:58.034Z,4.78
2022-08-20T23:26:01.714Z,4.35
2022-08-20T23:28:27.788Z,5.15
2022-08-20T23:30:53.669Z,8.80
2022-08-20T23:33:19.676Z,6.00
2022-08-20T23:35:46.048Z,4.13
2022-08-20T23:38:12.616Z,5.88
2022-08-20T23:40:38.534Z,6.53
2022-08-20T23:46:20.199Z,5.57
2022-08-20T23:48:46.111Z,6.22
2022-08-20T23:51:12.031Z,5.10
2022-08-20T23:53:38.083Z,3.42
2022-08-20T23:56:04.227Z,4.97
2022-08-20T23:58:30.101Z,8.40
